Time;durP1;ratioP1;P1;durP2;ratioP2;P2;SDS_P1;SDS_P2;PMS_P1;PMS_P2;Temp;Humidity;BMP_temperature;BMP_pressure;BME280_temperature;BME280_humidity;BME280_pressure;Samples;Min_cycle;Max_cycle;Signal;HPM_P1;HPM_P2
2022/03/18 00:00:43;;;;;;;63.65;35.40;;;;;;;1.81;100.00;102319.84;5570875;32;33953;-65
2022/03/18 00:03:46;;;;;;;71.65;40.20;;;;;;;1.92;100.00;102318.47;5557387;32;33864;-65
2022/03/18 00:06:49;;;;;;;69.78;38.92;;;;;;;1.88;100.00;102330.00;5570868;32;34322;-66
2022/03/18 00:09:52;;;;;;;68.57;40.33;;;;;;;1.86;100.00;102334.44;5570859;32;34087;-66
2022/03/18 00:12:54;;;;;;;68.87;39.17;;;;;;;1.81;100.00;102333.78;5570967;32;33954;-65
2022/03/18 00:15:57;;;;;;;73.45;41.65;;;;;;;1.69;100.00;102336.91;5570881;32;33943;-65
2022/03/18 00:19:00;;;;;;;73.87;41.53;;;;;;;1.56;100.00;102347.00;5571266;32;34613;-65
2022/03/18 00:22:04;;;;;;;75.20;42.70;;;;;;;1.60;100.00;102351.19;5570835;32;34074;-65
2022/03/18 00:25:09;;;;;;;69.18;41.72;;;;;;;1.67;100.00;102346.59;5570829;32;33995;-66
2022/03/18 00:28:12;;;;;;;73.25;40.35;;;;;;;1.66;100.00;102337.88;5550391;32;34287;-65
2022/03/18 00:31:15;;;;;;;70.50;40.72;;;;;;;1.63;100.00;102347.63;5550581;32;33952;-66
2022/03/18 00:34:18;;;;;;;61.55;34.88;;;;;;;1.67;100.00;102360.50;5551221;32;34583;-66
2022/03/18 00:37:20;;;;;;;68.40;35.78;;;;;;;1.66;100.00;102360.56;5551079;32;34840;-65
2022/03/18 00:40:23;;;;;;;64.12;35.97;;;;;;;1.65;100.00;102356.25;5551594;32;34656;-66
2022/03/18 00:43:26;;;;;;;69.72;37.38;;;;;;;1.88;100.00;102348.31;5550374;32;34022;-65
2022/03/18 00:46:29;;;;;;;66.32;39.25;;;;;;;1.93;100.00;102362.06;5551151;32;33958;-65
2022/03/18 00:52:52;;;;;;;63.85;38.38;;;;;;;1.95;100.00;102367.22;5551050;32;34682;-65
2022/03/18 00:55:55;;;;;;;70.22;39.45;;;;;;;1.88;100.00;102355.31;5550274;32;33908;-65
2022/03/18 00:58:58;;;;;;;68.50;40.25;;;;;;;1.86;100.00;102365.00;5551066;32;34348;-66
2022/03/18 01:02:00;;;;;;;64.90;39.20;;;;;;;1.72;100.00;102368.19;5550355;32;33936;-66
2022/03/18 01:05:04;;;;;;;68.35;38.90;;;;;;;1.59;100.00;102365.22;5550550;32;34001;-66
2022/03/18 01:08:07;;;;;;;66.40;39.40;;;;;;;1.55;100.00;102362.78;5551154;32;34807;-65
2022/03/18 01:11:10;;;;;;;71.87;40.33;;;;;;;1.64;100.00;102365.03;5551127;32;34589;-65
2022/03/18 01:14:12;;;;;;;66.95;40.28;;;;;;;1.56;100.00;102360.09;5550917;32;34727;-65
2022/03/18 01:17:15;;;;;;;71.43;39.78;;;;;;;1.53;100.00;102373.31;5550954;32;34121;-65
2022/03/18 01:20:18;;;;;;;67.07;39.40;;;;;;;1.42;100.00;102374.62;5550912;32;33902;-65
2022/03/18 01:23:21;;;;;;;67.93;40.22;;;;;;;1.38;100.00;102373.91;5550855;32;34531;-65
2022/03/18 01:26:24;;;;;;;79.68;42.30;;;;;;;1.51;100.00;102382.09;5550727;32;34401;-66
2022/03/18 01:29:27;;;;;;;70.57;41.50;;;;;;;1.53;100.00;102396.00;5566528;32;34363;-66
2022/03/18 01:32:32;;;;;;;76.20;40.47;;;;;;;1.35;100.00;102387.13;5570278;32;34179;-64
2022/03/18 01:35:37;;;;;;;69.07;40.10;;;;;;;1.25;100.00;102386.63;5570279;32;34574;-65
2022/03/18 01:38:39;;;;;;;72.62;42.03;;;;;;;1.20;100.00;102383.34;5570032;32;35481;-66
2022/03/18 01:41:43;;;;;;;78.55;44.15;;;;;;;1.18;100.00;102390.38;5570178;32;33903;-65
2022/03/18 01:44:47;;;;;;;78.65;43.87;;;;;;;1.41;100.00;102391.22;5570105;32;33982;-65
2022/03/18 01:47:50;;;;;;;76.47;44.58;;;;;;;1.48;100.00;102401.41;5570193;32;33913;-66
2022/03/18 01:50:53;;;;;;;84.07;46.13;;;;;;;1.40;100.00;102394.78;5570082;32;33991;-66
2022/03/18 01:57:20;;;;;;;80.40;44.20;;;;;;;1.20;100.00;102406.00;5570129;32;33981;-65
2022/03/18 02:00:24;;;;;;;81.32;43.50;;;;;;;1.36;100.00;102407.09;5556767;32;33925;-65
2022/03/18 02:03:27;;;;;;;77.78;44.88;;;;;;;1.23;100.00;102398.88;5569899;32;34032;-65
2022/03/18 02:06:30;;;;;;;78.82;45.08;;;;;;;1.20;100.00;102408.63;5570006;32;34252;-65
2022/03/18 02:09:33;;;;;;;77.50;43.87;;;;;;;1.17;100.00;102412.19;5569700;32;34139;-65
2022/03/18 02:12:36;;;;;;;80.55;46.55;;;;;;;1.04;100.00;102418.78;5569897;32;34579;-65
2022/03/18 02:15:39;;;;;;;81.80;45.45;;;;;;;1.04;100.00;102417.94;5556320;32;34233;-65
2022/03/18 02:18:42;;;;;;;79.78;44.85;;;;;;;1.01;100.00;102420.69;5569798;32;34110;-66
2022/03/18 02:21:46;;;;;;;83.30;43.47;;;;;;;0.94;100.00;102417.44;5569784;32;34019;-66
2022/03/18 02:24:51;;;;;;;83.03;44.55;;;;;;;0.90;100.00;102421.06;5569819;32;32512;-66
2022/03/18 02:27:59;;;;;;;75.97;44.75;;;;;;;0.86;100.00;102429.94;5569444;32;34091;-66
2022/03/18 02:31:01;;;;;;;81.45;42.13;;;;;;;0.80;100.00;102432.75;5569660;32;34522;-65
2022/03/18 02:34:04;;;;;;;76.10;41.13;;;;;;;0.77;100.00;102427.66;5569662;32;34309;-65
2022/03/18 02:37:08;;;;;;;66.62;38.75;;;;;;;0.86;100.00;102435.16;5569922;32;33981;-65
2022/03/18 02:40:11;;;;;;;68.95;38.20;;;;;;;0.81;100.00;102435.31;5569699;32;35369;-66
2022/03/18 02:43:13;;;;;;;66.37;38.55;;;;;;;0.90;100.00;102443.72;5555943;32;34027;-66
2022/03/18 02:46:16;;;;;;;62.47;37.15;;;;;;;0.83;100.00;102443.94;5569889;32;34338;-65
2022/03/18 02:49:19;;;;;;;59.35;33.55;;;;;;;0.93;100.00;102451.44;5569448;32;34259;-65
2022/03/18 02:52:22;;;;;;;56.95;32.60;;;;;;;0.93;100.00;102454.91;5568609;32;34353;-65
2022/03/18 02:55:26;;;;;;;59.45;32.40;;;;;;;0.94;100.00;102459.25;5569296;32;34701;-65
2022/03/18 02:58:29;;;;;;;58.75;33.90;;;;;;;0.94;100.00;102463.59;5569223;32;34344;-66
2022/03/18 03:01:31;;;;;;;57.17;32.97;;;;;;;1.08;100.00;102470.03;5569526;32;33995;-65
2022/03/18 03:07:58;;;;;;;54.63;32.03;;;;;;;1.18;100.00;102471.41;5555474;32;33947;-65
2022/03/18 03:08:00;;;;;;;45.17;24.35;;;;;;;1.08;100.00;102467.44;5569116;32;34305;-65
2022/03/18 03:11:03;;;;;;;43.72;25.27;;;;;;;1.23;94.30;102479.06;5568771;32;34180;-65
2022/03/18 03:14:06;;;;;;;38.88;22.75;;;;;;;1.36;89.57;102484.69;5568976;32;34625;-66
2022/03/18 03:17:08;;;;;;;39.85;22.95;;;;;;;1.37;82.71;102481.19;5568951;32;34435;-65
2022/03/18 03:20:11;;;;;;;43.87;23.00;;;;;;;1.30;84.95;102485.81;5568804;32;34639;-65
2022/03/18 03:23:15;;;;;;;44.67;23.60;;;;;;;1.44;83.41;102493.97;5568867;32;34215;-65
2022/03/18 03:26:18;;;;;;;44.28;24.80;;;;;;;1.30;84.95;102498.88;5568891;32;33933;-66
2022/03/18 03:29:21;;;;;;;42.85;24.83;;;;;;;1.25;85.97;102504.28;5554869;32;33999;-66
2022/03/18 03:32:23;;;;;;;50.05;26.67;;;;;;;1.19;87.77;102506.25;5568607;32;34215;-65
2022/03/18 03:35:26;;;;;;;44.97;25.85;;;;;;;1.14;89.17;102514.25;5568573;32;34003;-66
2022/03/18 03:38:29;;;;;;;45.60;25.77;;;;;;;1.12;90.25;102513.44;5568482;32;33939;-65
2022/03/18 03:41:32;;;;;;;42.33;21.98;;;;;;;1.15;89.13;102515.97;5568729;32;34683;-65
2022/03/18 03:44:34;;;;;;;33.63;18.75;;;;;;;1.15;86.18;102522.97;5568425;32;34675;-65
2022/03/18 03:47:39;;;;;;;33.30;16.95;;;;;;;1.16;83.64;102522.06;5568444;32;33940;-65
2022/03/18 03:50:41;;;;;;;37.58;19.20;;;;;;;1.23;74.52;102531.37;5554417;32;33938;-65
2022/03/18 03:53:44;;;;;;;38.85;19.00;;;;;;;1.73;77.29;102537.34;5568266;32;33941;-66
2022/03/18 03:56:47;;;;;;;32.25;18.67;;;;;;;1.67;74.97;102535.81;5568281;32;34639;-65
2022/03/18 03:59:49;;;;;;;32.97;18.92;;;;;;;1.58;75.65;102535.31;5568094;32;34012;-65
2022/03/18 04:02:52;;;;;;;29.15;16.80;;;;;;;1.59;74.63;102542.25;5568071;32;34550;-66
2022/03/18 04:05:55;;;;;;;31.67;15.45;;;;;;;1.62;71.71;102545.59;5569802;32;34308;-65
2022/03/18 04:08:57;;;;;;;23.55;13.85;;;;;;;1.63;71.17;102549.06;5571019;32;34438;-65
2022/03/18 04:12:00;;;;;;;22.02;12.00;;;;;;;1.68;68.13;102557.59;5557467;32;34115;-65
2022/03/18 04:15:04;;;;;;;24.48;12.37;;;;;;;1.98;59.88;102560.81;5571034;32;33980;-66
2022/03/18 04:18:07;;;;;;;22.77;12.15;;;;;;;1.96;61.65;102555.63;5570975;32;34401;-65
2022/03/18 04:21:09;;;;;;;23.98;12.15;;;;;;;1.84;62.93;102566.53;5571331;32;34669;-65
2022/03/18 04:24:12;;;;;;;21.65;11.52;;;;;;;1.87;61.21;102568.22;5571012;32;34300;-65
2022/03/18 04:27:17;;;;;;;21.90;11.90;;;;;;;2.01;59.66;102574.62;5570621;32;33932;-66
2022/03/18 04:30:20;;;;;;;22.70;12.27;;;;;;;2.04;57.58;102568.41;5570750;32;33857;-65
2022/03/18 04:33:22;;;;;;;19.10;10.77;;;;;;;1.99;57.63;102576.44;5570875;32;34042;-65
2022/03/18 04:36:25;;;;;;;21.58;11.10;;;;;;;1.97;57.45;102572.19;5570838;32;33937;-65
2022/03/18 04:39:28;;;;;;;22.23;10.63;;;;;;;2.02;55.02;102573.72;5570864;32;33944;-65
2022/03/18 04:42:31;;;;;;;25.00;11.52;;;;;;;2.02;56.66;102585.94;5570513;32;34950;-65
2022/03/18 04:45:33;;;;;;;22.62;10.95;;;;;;;1.98;55.46;102580.00;5570649;32;33993;-66
2022/03/18 04:48:36;;;;;;;21.80;10.05;;;;;;;1.98;55.32;102592.22;5557106;32;34581;-65
2022/03/18 04:51:38;;;;;;;20.98;10.45;;;;;;;1.89;56.34;102595.19;5570548;32;34054;-65
2022/03/18 04:54:41;;;;;;;22.08;10.68;;;;;;;1.85;56.08;102601.44;5570631;32;34034;-65
2022/03/18 04:57:44;;;;;;;20.73;10.30;;;;;;;1.85;57.52;102611.91;5570849;32;33965;-65
2022/03/18 05:00:47;;;;;;;20.60;10.40;;;;;;;1.80;56.76;102617.31;5570624;32;34634;-65
2022/03/18 05:03:50;;;;;;;17.58;10.63;;;;;;;1.80;55.67;102619.06;5570559;32;33960;-65
2022/03/18 05:06:53;;;;;;;22.05;10.80;;;;;;;1.74;56.97;102628.03;5570776;32;33964;-65
2022/03/18 05:09:55;;;;;;;20.42;10.55;;;;;;;1.70;56.89;102632.50;5570819;32;35204;-65
2022/03/18 05:12:58;;;;;;;18.58;8.70;;;;;;;1.71;55.64;102634.19;5556967;32;35424;-65
2022/03/18 05:16:00;;;;;;;21.87;10.27;;;;;;;1.69;56.27;102641.25;5569887;32;35266;-65
2022/03/18 05:19:04;;;;;;;21.25;11.05;;;;;;;1.75;57.88;102642.78;5570345;32;34053;-65
2022/03/18 05:22:07;;;;;;;22.77;10.25;;;;;;;1.80;56.72;102637.38;5570698;32;33972;-65
2022/03/18 05:25:12;;;;;;;20.77;10.18;;;;;;;1.81;56.06;102639.94;5570614;32;34003;-65
2022/03/18 05:28:15;;;;;;;18.95;9.27;;;;;;;1.84;55.88;102652.09;5556436;32;35070;-65
2022/03/18 05:31:17;;;;;;;20.88;9.25;;;;;;;1.81;56.25;102647.81;5556558;32;34250;-65
2022/03/18 05:34:20;;;;;;;23.77;8.95;;;;;;;1.86;56.17;102653.72;5570224;32;33886;-64
2022/03/18 05:37:23;;;;;;;20.83;9.15;;;;;;;1.91;54.62;102648.31;5556941;32;34071;-65
2022/03/18 05:40:26;;;;;;;20.80;9.43;;;;;;;1.97;55.07;102651.56;5570130;32;33971;-65
2022/03/18 05:43:29;;;;;;;20.00;9.05;;;;;;;2.04;54.16;102655.66;5556345;32;34066;-64
2022/03/18 05:46:31;;;;;;;16.10;8.05;;;;;;;2.09;54.40;102658.94;5570463;32;34130;-64
2022/03/18 05:49:35;;;;;;;17.45;7.90;;;;;;;2.21;54.25;102660.25;5556463;32;34046;-65
2022/03/18 05:52:46;;;;;;;13.27;7.60;;;;;;;2.13;53.57;102664.94;5569953;32;33923;-64
2022/03/18 05:59:10;;;;;;;17.65;9.25;;;;;;;2.06;53.06;102680.03;5569811;32;34036;-64
2022/03/18 06:02:13;;;;;;;19.98;8.27;;;;;;;2.13;53.54;102678.03;5570033;32;34463;-64
2022/03/18 06:05:17;;;;;;;19.83;8.73;;;;;;;2.27;53.16;102680.97;5570042;32;34127;-65
2022/03/18 06:11:51;;;;;;;17.62;7.60;;;;;;;2.34;52.21;102698.16;5569788;32;33962;-64
2022/03/18 06:14:54;;;;;;;20.67;8.10;;;;;;;2.39;52.60;102698.84;5569630;32;34181;-65
2022/03/18 06:17:57;;;;;;;19.33;8.40;;;;;;;2.65;52.43;102705.69;5556239;32;34551;-64
2022/03/18 06:21:00;;;;;;;17.35;9.40;;;;;;;2.58;52.02;102704.22;5569511;32;34618;-65
2022/03/18 06:24:03;;;;;;;15.77;8.63;;;;;;;2.84;52.71;102701.44;5569467;32;34681;-65
2022/03/18 06:27:05;;;;;;;15.73;8.30;;;;;;;2.90;52.07;102702.97;5568407;32;34321;-65
2022/03/18 06:30:10;;;;;;;18.58;9.75;;;;;;;2.65;51.35;102705.69;5569624;32;33825;-65
2022/03/18 06:33:12;;;;;;;15.88;8.70;;;;;;;2.55;51.69;102715.69;5569429;32;35238;-65
2022/03/18 06:36:15;;;;;;;20.80;8.27;;;;;;;2.88;51.64;102723.97;5569621;32;33928;-65
2022/03/18 06:39:19;;;;;;;16.35;8.38;;;;;;;2.67;50.94;102714.34;5568832;32;34369;-65
2022/03/18 06:42:23;;;;;;;17.30;8.55;;;;;;;2.60;51.74;102720.75;5555858;32;34097;-65
2022/03/18 06:45:26;;;;;;;19.35;8.70;;;;;;;2.72;51.04;102725.50;5569356;32;34756;-65
2022/03/18 06:48:29;;;;;;;18.33;8.77;;;;;;;3.02;51.00;102720.78;5569189;32;33914;-65
2022/03/18 06:51:33;;;;;;;19.37;7.68;;;;;;;2.93;50.64;102735.13;5569395;32;34542;-65
2022/03/18 06:54:35;;;;;;;16.30;8.32;;;;;;;2.70;51.04;102740.44;5569169;32;34022;-65
2022/03/18 06:57:38;;;;;;;21.80;9.23;;;;;;;2.99;50.81;102734.03;5554494;32;34071;-65
2022/03/18 07:00:42;;;;;;;18.00;8.85;;;;;;;2.87;51.11;102735.37;5568745;32;34352;-65
2022/03/18 07:03:44;;;;;;;20.70;9.75;;;;;;;2.93;50.40;102734.28;5555620;32;34217;-65
2022/03/18 07:06:47;;;;;;;18.05;8.88;;;;;;;3.01;50.29;102745.31;5569079;32;34113;-65
2022/03/18 07:09:50;;;;;;;16.02;8.60;;;;;;;3.02;50.03;102739.16;5568874;32;34312;-65
2022/03/18 07:12:53;;;;;;;22.95;9.98;;;;;;;3.08;50.56;102746.78;5568878;32;33386;-65
2022/03/18 07:15:55;;;;;;;20.77;8.95;;;;;;;3.20;50.36;102753.28;5555030;32;35111;-64
2022/03/18 07:18:58;;;;;;;21.12;9.02;;;;;;;3.28;49.02;102751.22;5568848;32;34044;-65
2022/03/18 07:22:01;;;;;;;18.25;9.05;;;;;;;3.16;49.48;102754.31;5568636;32;33969;-65
2022/03/18 07:25:05;;;;;;;18.62;9.35;;;;;;;3.33;49.60;102750.12;5568095;32;34024;-65
2022/03/18 07:28:10;;;;;;;19.83;9.40;;;;;;;3.90;48.43;102752.03;5568597;32;33965;-65
2022/03/18 07:31:13;;;;;;;20.05;9.55;;;;;;;4.07;48.22;102764.41;5568206;32;34082;-65
2022/03/18 07:34:15;;;;;;;16.37;9.52;;;;;;;4.23;47.79;102769.81;5568551;32;34000;-65
2022/03/18 07:37:18;;;;;;;17.62;9.13;;;;;;;3.87;47.87;102774.94;5568283;32;34140;-65
2022/03/18 07:40:21;;;;;;;27.73;9.57;;;;;;;3.98;48.21;102771.81;5570458;32;34649;-65
2022/03/18 07:43:24;;;;;;;21.60;9.25;;;;;;;4.12;48.07;102782.56;5557456;32;33942;-65
2022/03/18 07:46:27;;;;;;;18.67;9.95;;;;;;;3.87;48.17;102783.66;5571009;32;33599;-65
2022/03/18 07:49:30;;;;;;;18.45;9.38;;;;;;;4.15;47.59;102785.94;5570982;32;33873;-65
2022/03/18 07:52:33;;;;;;;26.48;10.10;;;;;;;4.51;47.86;102786.03;5570924;32;34090;-65
2022/03/18 07:55:37;;;;;;;21.55;10.20;;;;;;;4.10;48.09;102787.06;5570699;32;33775;-65
2022/03/18 07:58:40;;;;;;;21.40;9.88;;;;;;;4.06;47.99;102788.12;5570900;32;35133;-64
2022/03/18 08:01:43;;;;;;;18.37;10.25;;;;;;;4.07;48.17;102795.91;5570702;32;34147;-64
2022/03/18 08:04:51;;;;;;;19.10;9.18;;;;;;;4.52;46.56;102797.41;5570870;32;34545;-64
2022/03/18 08:07:53;;;;;;;17.87;9.35;;;;;;;5.09;46.26;102793.84;5570772;32;34685;-64
2022/03/18 08:10:58;;;;;;;16.02;8.55;;;;;;;5.64;45.03;102792.84;5570745;32;33959;-64
2022/03/18 08:14:01;;;;;;;18.48;9.30;;;;;;;5.77;43.96;102798.31;5570547;32;33876;-64
2022/03/18 08:17:04;;;;;;;27.62;10.45;;;;;;;5.25;44.72;102806.19;5570733;32;34101;-64
2022/03/18 08:20:08;;;;;;;23.85;10.02;;;;;;;6.24;43.77;102803.84;5570209;32;33993;-64
2022/03/18 08:23:14;;;;;;;23.40;10.57;;;;;;;6.38;42.24;102803.09;5570404;32;34028;-64
2022/03/18 08:26:16;;;;;;;20.83;9.98;;;;;;;5.24;44.81;102808.88;5570092;32;34736;-65
2022/03/18 08:29:19;;;;;;;23.87;10.35;;;;;;;5.13;46.37;102819.91;5570740;32;34331;-64
2022/03/18 08:32:22;;;;;;;24.00;10.50;;;;;;;5.76;44.33;102822.13;5570323;32;34348;-64
2022/03/18 08:35:25;;;;;;;22.27;10.63;;;;;;;6.35;43.77;102821.69;5556560;32;33885;-64
2022/03/18 08:38:27;;;;;;;20.62;10.63;;;;;;;6.92;42.05;102830.91;5570199;32;34128;-64
2022/03/18 08:41:31;;;;;;;17.35;10.45;;;;;;;6.50;42.77;102826.16;5570409;32;34843;-65
2022/03/18 08:44:33;;;;;;;21.62;10.93;;;;;;;6.72;42.61;102834.63;5570289;32;34106;-64
2022/03/18 08:47:37;;;;;;;24.48;10.95;;;;;;;6.46;43.81;102830.75;5570555;32;34123;-64
2022/03/18 08:50:40;;;;;;;25.35;12.18;;;;;;;6.07;44.63;102833.69;5569379;32;34421;-64
2022/03/18 08:53:42;;;;;;;24.33;12.05;;;;;;;5.78;45.78;102829.00;5570100;32;33987;-65
2022/03/18 08:56:45;;;;;;;25.30;11.77;;;;;;;6.56;44.54;102833.75;5570283;32;34812;-64
2022/03/18 08:59:48;;;;;;;20.17;10.93;;;;;;;7.02;41.88;102825.97;5570264;32;34109;-64
2022/03/18 09:02:51;;;;;;;21.58;11.48;;;;;;;6.18;43.75;102838.41;5556372;32;34514;-64
2022/03/18 09:05:56;;;;;;;23.83;11.18;;;;;;;6.26;44.93;102845.91;5569840;32;33910;-64
2022/03/18 09:09:03;;;;;;;22.25;11.30;;;;;;;7.23;43.13;102844.09;5556675;32;34745;-64
2022/03/18 09:12:06;;;;;;;21.80;11.70;;;;;;;7.28;41.83;102857.03;5569587;32;33951;-64
2022/03/18 09:15:09;;;;;;;23.65;11.43;;;;;;;6.44;43.91;102845.78;5569948;32;33831;-64
2022/03/18 09:18:14;;;;;;;23.15;11.38;;;;;;;6.95;42.47;102852.69;5556655;32;34797;-65
2022/03/18 09:21:16;;;;;;;23.92;10.80;;;;;;;7.06;42.75;102846.84;5569955;32;33897;-64
2022/03/18 09:24:19;;;;;;;25.73;11.52;;;;;;;7.30;42.02;102860.44;5556239;32;33942;-64
2022/03/18 09:27:22;;;;;;;19.05;10.60;;;;;;;7.42;41.41;102857.97;5569841;32;33935;-65
2022/03/18 09:30:25;;;;;;;21.40;11.80;;;;;;;7.19;42.71;102850.47;5569833;32;33990;-64
2022/03/18 09:33:28;;;;;;;22.90;11.95;;;;;;;6.34;44.22;102849.84;5570132;32;33921;-65
2022/03/18 09:36:31;;;;;;;23.55;11.45;;;;;;;6.78;44.52;102851.88;5569751;32;34575;-64
2022/03/18 09:39:34;;;;;;;24.25;12.57;;;;;;;6.68;44.14;102851.53;5569306;32;35271;-64
2022/03/18 09:43:02;;;;;;;24.92;12.57;;;;;;;6.72;44.04;102857.53;5569622;32;33262;-64
2022/03/18 09:46:10;;;;;;;24.65;12.40;;;;;;;7.16;42.91;102863.87;5569499;32;34013;-64
2022/03/18 09:49:34;;;;;;;23.48;12.85;;;;;;;6.40;45.06;102857.44;5569886;32;34130;-64
2022/03/18 09:52:38;;;;;;;22.05;11.38;;;;;;;7.11;44.19;102859.78;5569569;32;34169;-63
2022/03/18 09:55:45;;;;;;;24.30;12.37;;;;;;;7.31;43.13;102862.16;5569746;32;33857;-64
2022/03/18 09:58:48;;;;;;;28.77;13.05;;;;;;;7.31;42.48;102856.87;5556009;32;35260;-64
2022/03/18 10:02:27;;;;;;;26.42;12.65;;;;;;;7.37;42.09;102865.28;5569372;32;34266;-64
2022/03/18 10:05:32;;;;;;;26.30;12.68;;;;;;;7.56;41.98;102862.44;5569622;32;33960;-64
2022/03/18 10:08:42;;;;;;;22.67;12.55;;;;;;;8.43;41.08;102867.91;5569407;32;34605;-65
2022/03/18 10:11:46;;;;;;;28.65;12.48;;;;;;;8.96;38.93;102872.50;5569844;32;33847;-64
2022/03/18 10:14:49;;;;;;;27.50;14.40;;;;;;;8.44;40.15;102878.38;5569462;32;34043;-65
2022/03/18 10:17:55;;;;;;;30.17;13.88;;;;;;;7.37;43.87;102872.34;5569840;32;34016;-65
2022/03/18 10:21:08;;;;;;;26.67;13.95;;;;;;;7.60;44.18;102873.72;5569714;32;34737;-64
2022/03/18 10:24:11;;;;;;;24.90;13.95;;;;;;;8.15;42.82;102871.31;5569091;32;34025;-65
2022/03/18 10:27:16;;;;;;;29.15;14.48;;;;;;;8.16;42.92;102873.87;5561752;31;238361;-65
2022/03/18 10:30:21;;;;;;;30.83;15.45;;;;;;;8.58;42.39;102873.09;5569432;32;33951;-63
2022/03/18 10:37:17;;;;;;;28.92;15.80;;;;;;;8.95;42.58;102876.97;5569505;32;34602;-64
2022/03/18 10:40:35;;;;;;;27.25;14.55;;;;;;;9.13;44.24;102873.16;5569192;32;34116;-65
2022/03/18 10:43:54;;;;;;;29.65;16.40;;;;;;;8.78;45.42;102868.38;5569141;32;34770;-64
2022/03/18 10:46:58;;;;;;;35.42;15.50;;;;;;;10.10;41.78;102871.16;5542652;32;34002;-64
2022/03/18 10:50:11;;;;;;;28.90;16.35;;;;;;;10.62;40.60;102864.94;5569478;32;34181;-64
2022/03/18 10:53:13;;;;;;;34.00;16.27;;;;;;;10.27;41.94;102864.72;5555578;32;34189;-65
2022/03/18 10:56:16;;;;;;;33.92;16.50;;;;;;;10.33;42.08;102869.63;5568711;32;34052;-64
2022/03/18 10:59:19;;;;;;;30.75;17.17;;;;;;;9.41;44.86;102877.53;5555177;32;35199;-65
2022/03/18 11:02:24;;;;;;;35.40;19.27;;;;;;;9.75;45.57;102873.53;5568627;32;34404;-65
2022/03/18 11:05:34;;;;;;;31.02;18.17;;;;;;;10.83;45.01;102868.75;5568754;32;34606;-65
2022/03/18 11:08:56;;;;;;;37.17;18.95;;;;;;;10.31;45.40;102864.41;5568926;32;34020;-65
2022/03/18 11:11:58;;;;;;;34.00;17.40;;;;;;;11.80;42.46;102866.09;5568832;32;34377;-65
2022/03/18 11:15:04;;;;;;;32.47;17.58;;;;;;;10.62;42.96;102856.97;5570062;32;33930;-65
2022/03/18 11:18:11;;;;;;;32.05;18.85;;;;;;;11.42;42.15;102861.78;5557891;32;34638;-65
2022/03/18 11:21:15;;;;;;;28.90;17.90;;;;;;;13.31;38.21;102856.75;5571344;32;35160;-65
2022/03/18 11:24:27;;;;;;;31.37;18.80;;;;;;;12.01;40.73;102852.00;5570593;32;34075;-65
2022/03/18 11:27:30;;;;;;;31.83;17.15;;;;;;;13.44;37.87;102851.25;5570589;32;33920;-66
2022/03/18 11:30:37;;;;;;;33.40;18.70;;;;;;;14.94;35.90;102845.47;5557266;32;34679;-65
2022/03/18 11:33:41;;;;;;;29.52;17.90;;;;;;;15.71;33.91;102843.78;5570750;32;34121;-65
2022/03/18 11:36:46;;;;;;;30.17;18.20;;;;;;;15.62;34.44;102841.94;5570958;32;34783;-66
2022/03/18 11:39:49;;;;;;;31.00;19.10;;;;;;;13.98;36.31;102836.97;5570790;32;33915;-65
2022/03/18 11:42:51;;;;;;;32.60;18.37;;;;;;;13.40;36.96;102833.84;5570774;32;33987;-65
2022/03/18 11:46:19;;;;;;;31.00;18.98;;;;;;;15.46;34.15;102834.44;5556940;32;33893;-65
2022/03/18 11:49:31;;;;;;;31.62;18.60;;;;;;;15.34;34.61;102829.38;5571146;32;34704;-66
2022/03/18 11:52:34;;;;;;;33.92;18.92;;;;;;;18.64;29.19;102822.69;5570872;32;33870;-66
2022/03/18 11:55:36;;;;;;;31.08;19.65;;;;;;;16.13;31.82;102827.34;5570473;32;34884;-67
2022/03/18 11:59:27;;;;;;;32.00;19.35;;;;;;;18.04;29.70;102819.16;5559095;32;34046;-66
2022/03/18 12:02:38;;;;;;;31.35;19.30;;;;;;;17.03;30.77;102820.41;5570618;32;34076;-67
2022/03/18 12:05:53;;;;;;;30.25;18.33;;;;;;;16.80;31.60;102811.91;5570453;32;33886;-67
2022/03/18 12:08:58;;;;;;;31.33;19.48;;;;;;;20.10;26.59;102815.69;5570679;32;34100;-67
2022/03/18 12:12:19;;;;;;;41.08;20.88;;;;;;;18.22;29.66;102809.19;5570194;32;33913;-66
2022/03/18 12:15:22;;;;;;;31.80;19.10;;;;;;;17.32;30.62;102804.09;5570396;32;34868;-66
2022/03/18 12:18:28;;;;;;;31.02;19.83;;;;;;;17.65;29.77;102799.87;5570862;32;33873;-66
2022/03/18 12:21:44;;;;;;;30.10;19.23;;;;;;;16.46;31.49;102798.19;5570704;32;34080;-67
2022/03/18 12:24:48;;;;;;;36.10;20.02;;;;;;;18.03;29.36;102791.44;5556216;32;33992;-66
2022/03/18 12:27:52;;;;;;;32.63;20.52;;;;;;;20.41;26.40;102788.87;5569620;32;34872;-67
2022/03/18 12:30:55;;;;;;;37.28;21.10;;;;;;;18.82;28.90;102780.44;5570735;32;34028;-66
2022/03/18 12:33:59;;;;;;;32.42;19.35;;;;;;;18.30;29.16;102773.47;5570199;32;34603;-66
2022/03/18 12:37:14;;;;;;;32.47;20.20;;;;;;;18.98;28.29;102780.47;5556635;32;34048;-66
2022/03/18 12:40:19;;;;;;;30.05;19.90;;;;;;;19.71;27.36;102777.00;5570261;32;34007;-66
2022/03/18 12:43:25;;;;;;;41.80;21.85;;;;;;;16.97;30.68;102778.09;5570159;32;34708;-67
2022/03/18 12:46:29;;;;;;;28.70;20.25;;;;;;;19.37;28.57;102782.53;5569855;32;34303;-67
2022/03/18 12:49:37;;;;;;;31.30;20.25;;;;;;;20.86;25.35;102779.22;5570450;32;33973;-67
2022/03/18 12:52:43;;;;;;;32.63;19.83;;;;;;;21.72;24.22;102769.00;5570262;32;33943;-67
2022/03/18 12:55:54;;;;;;;31.27;20.52;;;;;;;21.53;24.53;102767.62;5570133;32;34023;-66
2022/03/18 12:58:57;;;;;;;32.90;20.92;;;;;;;20.18;25.91;102764.50;5556513;32;34853;-67
2022/03/18 13:02:17;;;;;;;31.70;21.05;;;;;;;21.09;24.96;102762.03;5569980;32;34009;-67
2022/03/18 13:05:26;;;;;;;32.05;20.12;;;;;;;18.35;28.67;102747.78;5569977;32;33998;-66
2022/03/18 13:08:33;;;;;;;33.40;20.60;;;;;;;17.82;29.49;102747.97;5570476;32;33911;-67
2022/03/18 13:11:39;;;;;;;30.33;20.40;;;;;;;18.93;27.88;102746.97;5570189;32;34654;-67
2022/03/18 13:14:44;;;;;;;30.92;20.42;;;;;;;20.86;25.33;102741.47;5569905;32;34556;-67
2022/03/18 13:17:48;;;;;;;31.60;21.73;;;;;;;21.49;24.05;102741.19;5569808;32;34673;-67
2022/03/18 13:21:03;;;;;;;29.48;19.70;;;;;;;22.73;22.70;102739.47;5569466;32;35211;-66
2022/03/18 13:24:07;;;;;;;29.67;19.33;;;;;;;18.31;28.46;102730.28;5569820;32;34001;-67
2022/03/18 13:27:11;;;;;;;32.25;20.88;;;;;;;18.51;28.76;102734.41;5569972;32;34101;-66
2022/03/18 13:33:43;;;;;;;28.92;19.30;;;;;;;16.83;31.32;102730.34;5569945;32;33951;-66
2022/03/18 13:36:46;;;;;;;31.10;19.75;;;;;;;17.74;29.70;102729.16;5569587;32;34106;-67
2022/03/18 13:39:50;;;;;;;33.13;19.50;;;;;;;16.47;31.70;102726.72;5570271;32;35258;-66
2022/03/18 13:43:03;;;;;;;33.58;19.37;;;;;;;16.57;31.44;102726.66;5570228;32;34529;-67
2022/03/18 13:46:18;;;;;;;31.12;19.33;;;;;;;20.44;26.41;102723.78;5569817;32;33993;-67
2022/03/18 13:49:22;;;;;;;33.80;19.98;;;;;;;19.80;26.96;102728.34;5569909;32;34187;-67
2022/03/18 13:52:32;;;;;;;30.30;18.90;;;;;;;21.44;24.48;102725.53;5569827;32;34650;-67
2022/03/18 13:55:35;;;;;;;26.62;17.65;;;;;;;21.86;24.13;102719.53;5569992;32;34081;-67
2022/03/18 13:58:38;;;;;;;25.08;17.02;;;;;;;20.76;24.95;102715.53;5556031;32;34008;-67
2022/03/18 14:02:07;;;;;;;25.62;18.00;;;;;;;22.19;23.64;102716.47;5569620;32;34287;-67
2022/03/18 14:05:20;;;;;;;26.60;17.60;;;;;;;20.54;25.74;102708.25;5569713;32;33948;-66
2022/03/18 14:08:30;;;;;;;23.92;16.95;;;;;;;20.55;24.48;102719.88;5569541;32;34155;-67
2022/03/18 14:15:11;;;;;;;32.58;17.45;;;;;;;22.26;22.22;102709.31;5569236;32;33932;-67
2022/03/18 14:18:17;;;;;;;28.55;17.20;;;;;;;24.20;20.40;102711.56;5569390;32;34153;-66
2022/03/18 14:21:20;;;;;;;24.90;16.77;;;;;;;23.33;20.45;102698.38;5556077;32;33909;-67
2022/03/18 14:24:23;;;;;;;24.95;15.90;;;;;;;20.66;23.12;102703.31;5569452;32;34609;-67
2022/03/18 14:27:26;;;;;;;24.90;16.23;;;;;;;20.95;22.92;102703.44;5569110;32;34660;-67
2022/03/18 14:30:29;;;;;;;30.62;15.70;;;;;;;18.94;25.25;102702.94;5568836;32;34646;-66